Philadelphia, Pennsylvania
Traffic Map
Current Weather Conditions
Philadelphia, Pennsylvania
Broken Clouds
Broken Clouds
52°
Feels Like: 52°
Wind Chill: 52° Ceiling: 25000
Heat Index: 52° Visibility: 10mi
Dew Point: 36° Wind: 0mph
Humidity: 54% Direction: ° ()
Pressure: 30.33in Gusts: 0mph
Raw Report DataKPHL 200354Z 00000KT 10SM BKN250 11/02 A3033 RMK AO2 SLP271 T01110022
Traffic Incident Summary
Active as of:
Severity:
Category:
InformationThere was an issue retrieving the traffic information for this location. Please try a different location or try again shortly.
Advertisements
At Last! Intellicast now available for iPhone and Android